Time;durP1;ratioP1;P1;durP2;ratioP2;P2;SDS_P1;SDS_P2;PMS_P1;PMS_P2;Temp;Humidity;BMP_temperature;BMP_pressure;BME280_temperature;BME280_humidity;BME280_pressure;Samples;Min_cycle;Max_cycle;Signal;HPM_P1;HPM_P2
2022/12/25 00:00:10;;;;;;;37.13;12.20;;;;;;;18.11;48.02;101423.63;5096924;27;20023;-69
2022/12/25 00:02:36;;;;;;;35.07;12.40;;;;;;;18.37;47.88;101424.56;5120595;27;20065;-69
2022/12/25 00:05:02;;;;;;;28.90;12.40;;;;;;;17.71;48.52;101422.22;5105763;28;20542;-69
2022/12/25 00:07:28;;;;;;;44.60;13.50;;;;;;;18.13;47.73;101424.47;5118578;27;20031;-68
2022/12/25 00:09:53;;;;;;;39.77;12.80;;;;;;;18.46;46.62;101426.03;5108840;27;20021;-69
2022/12/25 00:12:19;;;;;;;35.87;13.80;;;;;;;18.36;47.19;101429.94;5108237;27;20050;-69
2022/12/25 00:14:45;;;;;;;34.73;11.87;;;;;;;18.46;47.34;101421.63;5108275;27;20023;-68
2022/12/25 00:17:11;;;;;;;41.03;14.83;;;;;;;18.29;47.61;101424.81;5111682;27;20027;-69
2022/12/25 00:19:36;;;;;;;40.30;13.23;;;;;;;18.14;48.07;101415.59;5102842;27;20051;-68
2022/12/25 00:22:01;;;;;;;33.83;12.53;;;;;;;17.59;50.04;101418.16;5108581;27;20494;-69
2022/12/25 00:24:27;;;;;;;39.67;13.37;;;;;;;18.15;48.38;101411.19;5106341;28;20379;-69
2022/12/25 00:26:52;;;;;;;35.60;13.47;;;;;;;18.36;48.84;101408.75;5099384;27;20027;-69
2022/12/25 00:29:17;;;;;;;27.87;11.77;;;;;;;17.43;50.43;101412.50;5104144;27;20023;-69
2022/12/25 00:31:43;;;;;;;40.53;11.97;;;;;;;17.53;51.08;101413.06;5121540;27;20103;-69
2022/12/25 00:34:08;;;;;;;30.07;12.27;;;;;;;18.48;49.16;101418.94;5094338;28;20015;-69
2022/12/25 00:36:34;;;;;;;44.27;13.50;;;;;;;17.39;52.88;101415.25;5103418;27;20015;-69
2022/12/25 00:38:59;;;;;;;30.33;12.97;;;;;;;17.78;50.78;101415.81;5126562;27;20031;-69
2022/12/25 00:44:11;;;;;;;44.63;16.20;;;;;;;18.52;49.03;101427.59;5120704;27;20084;-69
2022/12/25 00:46:37;;;;;;;39.40;14.47;;;;;;;17.81;50.84;101428.94;5130258;27;20049;-69
2022/12/25 00:49:02;;;;;;;29.37;15.37;;;;;;;18.37;48.96;101426.34;5110197;27;20023;-69
2022/12/25 00:51:28;;;;;;;42.07;15.70;;;;;;;17.83;51.55;101420.09;5115400;27;20034;-69
2022/12/25 00:53:53;;;;;;;41.73;15.50;;;;;;;18.70;49.15;101418.16;5109572;27;20027;-69
2022/12/25 00:56:19;;;;;;;32.07;14.23;;;;;;;18.46;49.26;101416.34;5101285;27;20042;-69
2022/12/25 00:58:45;;;;;;;35.27;14.53;;;;;;;19.12;47.86;101415.84;5111729;27;20023;-69
2022/12/25 01:01:10;;;;;;;32.73;14.37;;;;;;;18.38;49.20;101425.44;5106848;28;20024;-68
2022/12/25 01:03:36;;;;;;;30.43;13.23;;;;;;;19.22;47.54;101423.41;5106753;27;20035;-69
2022/12/25 01:06:04;;;;;;;33.57;14.43;;;;;;;19.11;47.75;101430.00;5105966;28;20116;-68
2022/12/25 01:08:32;;;;;;;39.80;15.17;;;;;;;18.36;49.67;101443.16;5105682;28;20031;-69
2022/12/25 01:11:00;;;;;;;42.23;15.00;;;;;;;18.51;48.82;101449.72;5128465;27;20499;-69
2022/12/25 01:13:27;;;;;;;37.17;13.90;;;;;;;18.97;47.12;101442.84;5110403;28;20030;-69
2022/12/25 01:15:53;;;;;;;41.70;13.43;;;;;;;18.73;48.95;101440.13;5100430;28;20410;-69
2022/12/25 01:18:20;;;;;;;29.17;14.50;;;;;;;18.62;49.32;101450.22;5107186;28;20493;-68
2022/12/25 01:20:45;;;;;;;25.03;13.57;;;;;;;19.35;47.52;101437.94;5103579;28;20019;-68
2022/12/25 01:23:11;;;;;;;37.73;13.60;;;;;;;19.46;47.26;101438.41;5104636;28;20366;-69
2022/12/25 01:25:36;;;;;;;28.10;13.53;;;;;;;18.58;48.83;101435.34;5108755;28;20435;-69
2022/12/25 01:28:01;;;;;;;30.43;12.23;;;;;;;18.75;48.40;101421.53;5112054;28;20031;-69
2022/12/25 01:30:27;;;;;;;39.73;15.03;;;;;;;18.90;47.95;101412.22;5109347;28;20120;-68
2022/12/25 01:32:52;;;;;;;32.77;14.73;;;;;;;18.02;50.24;101413.34;5128804;28;20027;-69
2022/12/25 01:35:17;;;;;;;38.43;13.57;;;;;;;18.56;49.08;101410.69;5106788;28;20030;-69
2022/12/25 01:37:43;;;;;;;34.53;13.50;;;;;;;18.13;49.24;101424.47;5116357;28;20023;-69
2022/12/25 01:40:09;;;;;;;28.67;13.27;;;;;;;18.12;49.36;101428.03;5120659;28;20391;-68
2022/12/25 01:42:34;;;;;;;28.77;13.57;;;;;;;18.02;49.99;101437.16;5107897;28;20051;-69
2022/12/25 01:45:37;;;;;;;30.70;14.73;;;;;;;17.47;51.43;101439.66;5104584;28;20054;-69
2022/12/25 01:48:08;;;;;;;31.77;15.25;;;;;;;18.39;49.44;101432.47;5104841;28;20031;-68
2022/12/25 01:50:36;;;;;;;32.27;15.27;;;;;;;19.13;47.37;101433.44;5112339;28;20031;-68
2022/12/25 01:53:02;;;;;;;35.83;14.33;;;;;;;18.36;50.09;101436.06;5105424;28;20106;-68
2022/12/25 01:55:28;;;;;;;34.07;15.57;;;;;;;17.83;50.86;101435.97;5104944;28;20106;-69
2022/12/25 01:57:54;;;;;;;36.20;14.80;;;;;;;17.29;53.22;101427.88;5113423;28;20390;-69
2022/12/25 02:00:19;;;;;;;35.33;15.73;;;;;;;17.66;51.96;101433.84;5095750;28;20023;-68
2022/12/25 02:02:45;;;;;;;36.23;17.17;;;;;;;18.13;50.37;101429.75;5126907;28;20064;-69
2022/12/25 02:05:10;;;;;;;43.83;17.73;;;;;;;17.15;54.22;101443.25;5104907;27;20632;-69
2022/12/25 02:07:40;;;;;;;39.53;17.30;;;;;;;17.93;51.67;101426.88;5102323;28;20032;-69
2022/12/25 02:10:07;;;;;;;45.40;16.77;;;;;;;17.39;52.95;101433.75;5128124;27;20026;-69
2022/12/25 02:12:34;;;;;;;39.90;15.13;;;;;;;17.49;52.77;101432.56;5107273;27;20026;-69
2022/12/25 02:15:08;;;;;;;41.03;17.43;;;;;;;18.33;51.01;101430.88;5103749;27;20023;-68
2022/12/25 02:17:37;;;;;;;37.00;16.30;;;;;;;17.57;53.62;101434.97;5117604;27;20027;-69
2022/12/25 02:20:26;;;;;;;41.67;16.57;;;;;;;18.08;52.15;101426.41;5123425;27;20035;-69
2022/12/25 02:23:04;;;;;;;35.37;16.20;;;;;;;17.75;52.60;101423.88;5113454;27;20049;-69
2022/12/25 02:25:57;;;;;;;32.97;16.60;;;;;;;17.67;52.61;101425.88;5131453;27;20123;-69
2022/12/25 02:28:25;;;;;;;;;;;;;;;18.13;51.71;101424.47;5110596;27;20517;-69
2022/12/25 02:31:18;;;;;;;33.30;17.03;;;;;;;18.52;50.46;101422.31;5110136;27;20294;-68
2022/12/25 02:34:01;;;;;;;35.87;17.23;;;;;;;17.92;52.41;101423.34;5131430;27;20458;-68
2022/12/25 02:36:33;;;;;;;39.13;18.30;;;;;;;18.57;50.95;101415.09;5119176;27;20062;-69
2022/12/25 02:41:50;;;;;;;39.93;16.40;;;;;;;18.69;50.37;101406.72;5128651;27;20095;-69
2022/12/25 03:07:18;;;;;;;34.63;16.97;;;;;;;18.45;50.95;101350.19;5127984;27;20087;-69
2022/12/25 03:13:02;;;;;;;36.73;18.77;;;;;;;18.65;49.86;101357.44;5121332;27;20050;-69
2022/12/25 03:18:18;;;;;;;42.67;18.23;;;;;;;18.83;49.68;101361.22;5119924;27;20047;-69
2022/12/25 03:29:00;;;;;;;44.30;19.63;;;;;;;19.21;47.98;101355.47;5128741;27;20406;-69
2022/12/25 03:31:42;;;;;;;44.93;20.63;;;;;;;18.54;49.51;101354.31;5127406;27;20023;-69
2022/12/25 04:36:08;;;;;;;31.77;17.83;;;;;;;18.64;48.71;101355.72;5124333;27;20050;-69
2022/12/25 04:38:34;;;;;;;32.97;16.77;;;;;;;17.86;51.02;101353.91;5115467;27;20554;-68
2022/12/25 04:41:00;;;;;;;33.47;16.97;;;;;;;17.74;51.04;101353.38;5117920;27;20406;-69
2022/12/25 04:43:26;;;;;;;38.10;16.53;;;;;;;17.49;52.35;101344.47;5108597;27;20019;-69
2022/12/25 04:45:54;;;;;;;34.40;17.73;;;;;;;18.04;51.21;101342.75;5111668;27;20129;-68
2022/12/25 04:48:19;;;;;;;35.83;16.20;;;;;;;17.59;51.51;101335.38;5118062;27;20119;-68
2022/12/25 04:50:45;;;;;;;30.23;14.73;;;;;;;17.50;53.34;101333.00;5118891;27;20457;-68
2022/12/25 04:53:10;;;;;;;26.87;14.80;;;;;;;16.81;54.32;101325.31;5100007;27;20023;-69
2022/12/25 04:55:35;;;;;;;36.43;16.23;;;;;;;17.11;53.98;101332.38;5115969;27;20055;-69
2022/12/25 04:58:01;;;;;;;34.63;14.33;;;;;;;17.08;53.90;101332.47;5100014;27;20087;-68
2022/12/25 05:00:26;;;;;;;33.87;15.23;;;;;;;17.14;54.27;101326.16;5111712;27;20019;-68
2022/12/25 05:02:52;;;;;;;34.77;15.23;;;;;;;17.66;52.61;101313.09;5112152;27;20023;-69
2022/12/25 05:05:17;;;;;;;27.70;13.03;;;;;;;16.74;56.09;101316.72;5122367;27;20156;-69
2022/12/25 05:07:42;;;;;;;31.63;14.50;;;;;;;17.29;53.50;101308.97;5097740;27;20037;-68
2022/12/25 05:10:08;;;;;;;33.67;12.80;;;;;;;17.10;53.82;101309.56;5114298;27;20399;-69
2022/12/25 05:12:33;;;;;;;29.37;12.93;;;;;;;17.73;51.85;101314.63;5117112;27;20055;-68
2022/12/25 05:14:59;;;;;;;25.90;12.70;;;;;;;17.80;51.13;101313.53;5124534;27;20031;-69
2022/12/25 05:17:24;;;;;;;29.30;12.60;;;;;;;17.58;51.58;101315.13;5118077;27;20032;-69
2022/12/25 05:19:50;;;;;;;23.17;11.93;;;;;;;17.51;52.44;101308.31;5093112;28;20016;-69
2022/12/25 05:22:15;;;;;;;32.03;12.10;;;;;;;18.17;50.48;101313.25;5123287;28;20030;-68
2022/12/25 05:24:40;;;;;;;28.67;11.90;;;;;;;17.94;51.22;101307.84;5108427;28;20042;-69
2022/12/25 05:27:06;;;;;;;22.23;12.07;;;;;;;17.60;51.55;101318.59;5120421;27;20499;-69
2022/12/25 05:29:31;;;;;;;27.33;11.10;;;;;;;17.85;50.90;101317.81;5098647;28;20028;-69
2022/12/25 05:31:56;;;;;;;28.93;10.30;;;;;;;18.04;49.87;101313.69;5092753;28;20041;-69
2022/12/25 05:34:22;;;;;;;24.43;10.77;;;;;;;18.16;49.64;101303.59;5122544;27;20038;-69
2022/12/25 05:36:47;;;;;;;18.30;10.70;;;;;;;18.26;49.49;101303.22;5124318;28;20573;-69
2022/12/25 05:39:13;;;;;;;21.70;10.13;;;;;;;18.22;49.15;101308.69;5098858;28;20024;-69
2022/12/25 05:41:39;;;;;;;28.50;10.23;;;;;;;18.56;48.59;101312.75;5119554;27;20105;-69
2022/12/25 05:44:04;;;;;;;20.03;9.17;;;;;;;18.14;49.92;101316.88;5130070;27;20490;-69
2022/12/25 05:46:29;;;;;;;20.90;10.30;;;;;;;17.69;50.97;101323.56;5126878;27;20026;-69
2022/12/25 05:48:55;;;;;;;19.67;10.00;;;;;;;17.62;51.92;101314.97;5106240;27;20035;-69
2022/12/25 05:51:20;;;;;;;19.97;9.10;;;;;;;18.25;50.46;101305.91;5129164;27;20031;-69
2022/12/25 05:53:45;;;;;;;17.70;8.93;;;;;;;18.33;49.82;101298.59;5110383;27;20019;-69
2022/12/25 05:56:11;;;;;;;17.97;8.23;;;;;;;17.36;52.28;101302.59;5105928;27;20038;-69
2022/12/25 05:58:38;;;;;;;18.13;9.27;;;;;;;17.52;52.20;101302.13;5112767;27;20023;-68
2022/12/25 06:01:12;;;;;;;22.07;10.13;;;;;;;17.55;52.78;101296.75;5113606;27;20061;-68
2022/12/25 06:03:38;;;;;;;22.33;9.83;;;;;;;17.99;51.92;101289.16;5109564;28;20099;-69
2022/12/25 06:06:04;;;;;;;16.30;8.90;;;;;;;18.28;51.63;101285.50;5108362;28;20519;-68
2022/12/25 06:08:29;;;;;;;20.70;9.23;;;;;;;18.38;51.02;101286.06;5109525;28;20024;-69
2022/12/25 06:10:54;;;;;;;17.10;8.83;;;;;;;18.67;50.46;101292.09;5107242;28;20035;-68
2022/12/25 06:13:20;;;;;;;15.03;8.87;;;;;;;17.66;51.83;101297.25;5112683;28;20133;-69
2022/12/25 06:15:45;;;;;;;18.00;9.80;;;;;;;17.15;54.15;101295.34;5107941;28;20030;-69
2022/12/25 06:18:10;;;;;;;16.00;9.63;;;;;;;17.85;52.62;101284.28;5108901;28;20093;-69
2022/12/25 06:20:39;;;;;;;17.47;9.67;;;;;;;17.78;53.00;101286.28;5112420;28;20102;-69
2022/12/25 06:23:05;;;;;;;13.00;9.67;;;;;;;18.31;51.25;101271.28;5110309;28;20527;-69
2022/12/25 06:25:30;;;;;;;19.90;10.07;;;;;;;18.67;48.96;101267.38;5109719;28;20118;-69
2022/12/25 06:27:55;;;;;;;18.87;9.97;;;;;;;18.29;50.38;101263.41;5111314;28;20039;-68
2022/12/25 06:30:21;;;;;;;18.40;9.43;;;;;;;18.16;51.69;101263.91;5111368;28;20042;-68
2022/12/25 06:32:46;;;;;;;16.87;9.03;;;;;;;18.61;50.81;101260.53;5103959;28;20036;-69
2022/12/25 06:35:12;;;;;;;17.27;8.67;;;;;;;18.11;51.20;101267.56;5101030;28;20031;-69
2022/12/25 06:37:37;;;;;;;14.67;9.57;;;;;;;17.76;52.76;101259.03;5109385;28;20042;-69
2022/12/25 06:40:03;;;;;;;13.87;8.70;;;;;;;17.76;54.07;101253.75;5112759;28;20073;-68
2022/12/25 06:42:28;;;;;;;13.20;8.60;;;;;;;17.87;53.47;101248.06;5107192;28;20028;-69
2022/12/25 06:44:54;;;;;;;16.07;8.23;;;;;;;18.66;50.00;101258.56;5107479;28;20032;-69
2022/12/25 06:47:19;;;;;;;12.57;8.10;;;;;;;17.36;53.41;101257.66;5110549;28;20043;-69
2022/12/25 06:49:44;;;;;;;18.97;8.30;;;;;;;18.15;51.75;101249.81;5103548;28;20043;-69
2022/12/25 06:52:10;;;;;;;14.63;9.20;;;;;;;18.12;51.22;101247.25;5102301;28;20043;-68
2022/12/25 06:54:35;;;;;;;12.57;8.80;;;;;;;19.17;48.81;101242.56;5109890;28;20024;-69
2022/12/25 06:57:01;;;;;;;18.07;9.50;;;;;;;19.22;48.33;101237.94;5109606;28;20027;-69
2022/12/25 06:59:26;;;;;;;13.90;8.93;;;;;;;18.40;49.99;101236.56;5111287;28;20024;-69
2022/12/25 07:01:54;;;;;;;13.50;8.83;;;;;;;18.94;49.37;101241.66;5104416;28;20035;-68
2022/12/25 07:04:31;;;;;;;15.80;9.53;;;;;;;19.25;48.21;101246.63;5107585;28;20431;-68
2022/12/25 07:06:59;;;;;;;12.73;8.30;;;;;;;19.65;47.26;101241.50;5107080;28;20084;-68
2022/12/25 07:09:24;;;;;;;14.93;10.00;;;;;;;20.02;45.92;101236.44;5109806;28;20034;-69
2022/12/25 07:11:50;;;;;;;16.13;9.47;;;;;;;19.87;46.58;101238.84;5109037;28;20028;-68
2022/12/25 07:14:18;;;;;;;13.07;9.40;;;;;;;19.54;46.72;101235.78;5107620;28;20031;-69
2022/12/25 07:16:43;;;;;;;13.03;9.53;;;;;;;19.29;47.16;101242.09;5112077;28;20180;-69
2022/12/25 07:19:09;;;;;;;13.90;9.93;;;;;;;19.25;47.98;101241.34;5110848;28;20542;-69
2022/12/25 07:21:34;;;;;;;16.03;9.97;;;;;;;19.81;46.94;101234.66;5110196;28;20030;-68
2022/12/25 07:24:00;;;;;;;17.07;10.33;;;;;;;19.54;47.31;101241.09;5109733;28;20035;-68
2022/12/25 07:26:25;;;;;;;18.63;11.43;;;;;;;19.81;46.82;101237.31;5104258;28;20028;-69
2022/12/25 07:28:51;;;;;;;18.87;11.17;;;;;;;18.98;48.15;101246.78;5111138;28;20032;-68
2022/12/25 07:31:16;;;;;;;19.67;10.20;;;;;;;19.45;47.50;101253.78;5109914;28;20039;-69
2022/12/25 07:33:42;;;;;;;21.97;11.20;;;;;;;19.69;46.38;101250.16;5112214;28;20039;-68
2022/12/25 07:36:08;;;;;;;21.27;10.77;;;;;;;20.02;46.39;101262.97;5106549;28;20652;-69
2022/12/25 07:38:34;;;;;;;17.27;11.13;;;;;;;20.09;45.70;101259.16;5106722;28;20027;-68
2022/12/25 07:40:59;;;;;;;19.40;12.40;;;;;;;19.99;45.49;101264.84;5104895;28;20024;-69
2022/12/25 07:43:25;;;;;;;19.03;12.53;;;;;;;19.24;46.92;101265.25;5099141;28;20100;-69
2022/12/25 07:45:58;;;;;;;15.73;11.83;;;;;;;20.01;45.95;101264.78;5096872;28;20523;-69
2022/12/25 07:48:25;;;;;;;15.53;10.53;;;;;;;19.73;46.38;101270.31;5106468;28;20119;-69
2022/12/25 07:50:59;;;;;;;17.27;10.83;;;;;;;20.01;45.93;101283.34;5104619;28;20171;-69
2022/12/25 07:53:25;;;;;;;20.97;11.73;;;;;;;20.06;46.10;101281.38;5106076;28;20451;-68
2022/12/25 07:56:02;;;;;;;17.43;10.87;;;;;;;19.14;47.99;101278.84;5107268;28;20172;-69
2022/12/25 07:58:28;;;;;;;14.83;10.00;;;;;;;20.06;46.01;101276.06;5105792;28;20526;-68
2022/12/25 08:00:54;;;;;;;15.40;11.00;;;;;;;19.76;46.11;101271.06;5109866;28;20075;-69
2022/12/25 08:03:20;;;;;;;18.87;11.13;;;;;;;19.86;45.59;101284.00;5108607;28;20489;-69
2022/12/25 08:05:45;;;;;;;17.43;11.67;;;;;;;19.98;45.94;101288.78;5107579;28;20027;-68
2022/12/25 08:08:11;;;;;;;16.80;10.60;;;;;;;20.29;45.23;101290.09;5106823;28;20471;-68
2022/12/25 08:10:37;;;;;;;21.83;12.47;;;;;;;19.24;46.78;101289.94;5111894;28;20043;-69
2022/12/25 08:13:02;;;;;;;17.87;11.73;;;;;;;19.62;47.01;101292.00;5106555;28;20046;-69
2022/12/25 08:15:29;;;;;;;19.87;12.40;;;;;;;19.06;47.92;101294.19;5109018;28;20168;-69
2022/12/25 08:17:55;;;;;;;17.43;11.20;;;;;;;19.78;46.16;101302.84;5104058;28;20027;-68
2022/12/25 08:20:20;;;;;;;22.50;11.10;;;;;;;19.20;47.58;101288.34;5108090;28;20057;-68
2022/12/25 08:22:46;;;;;;;21.63;10.87;;;;;;;19.37;46.94;101293.00;5107657;28;20023;-69
2022/12/25 08:25:11;;;;;;;26.23;11.47;;;;;;;19.79;46.23;101283.34;5109734;28;20031;-68
2022/12/25 08:27:36;;;;;;;19.77;9.87;;;;;;;20.30;44.99;101283.88;5109173;28;20058;-68
2022/12/25 08:30:02;;;;;;;19.17;10.63;;;;;;;20.49;44.85;101276.81;5104656;28;20168;-69
2022/12/25 08:32:31;;;;;;;18.47;9.97;;;;;;;19.46;47.03;101270.56;5110093;28;20039;-68
2022/12/25 08:34:56;;;;;;;18.13;9.57;;;;;;;19.65;47.01;101260.06;5111827;28;20035;-69
2022/12/25 08:37:21;;;;;;;18.47;9.50;;;;;;;20.09;45.23;101259.16;5109563;28;20176;-68
2022/12/25 08:39:47;;;;;;;15.17;8.87;;;;;;;20.05;45.73;101271.66;5110160;28;20062;-68
2022/12/25 08:42:14;;;;;;;14.40;8.37;;;;;;;20.25;45.20;101280.56;5106778;28;20042;-69
2022/12/25 08:44:39;;;;;;;14.37;8.70;;;;;;;20.05;45.57;101282.28;5103717;28;20034;-68
2022/12/25 08:47:04;;;;;;;16.23;8.77;;;;;;;19.77;45.61;101275.47;5103936;28;20032;-68
2022/12/25 08:49:30;;;;;;;12.70;7.80;;;;;;;19.93;44.84;101273.03;5103604;28;20024;-68
2022/12/25 08:51:55;;;;;;;11.33;7.60;;;;;;;20.08;45.81;101274.19;5102504;28;20489;-68
2022/12/25 08:54:21;;;;;;;20.07;8.20;;;;;;;20.33;44.82;101273.13;5105410;28;20032;-68
2022/12/25 08:56:46;;;;;;;16.50;7.97;;;;;;;20.04;45.20;101275.25;5102705;28;20105;-68
2022/12/25 08:59:12;;;;;;;15.50;8.03;;;;;;;19.88;46.29;101268.88;5099833;28;20252;-68
2022/12/25 09:01:37;;;;;;;18.97;7.50;;;;;;;19.34;47.26;101277.19;5102961;28;20035;-68
2022/12/25 09:04:02;;;;;;;13.97;7.43;;;;;;;19.44;47.26;101286.53;5096122;28;20131;-68
2022/12/25 09:06:28;;;;;;;12.43;7.43;;;;;;;19.31;47.38;101272.03;5096643;28;20106;-68
2022/12/25 09:08:54;;;;;;;14.17;7.23;;;;;;;18.92;47.97;101301.78;5107281;28;20024;-68
2022/12/25 09:11:20;;;;;;;12.23;7.33;;;;;;;18.76;48.88;101299.66;5104563;28;20463;-68
2022/12/25 09:13:46;;;;;;;13.63;6.53;;;;;;;17.94;51.06;101302.53;5110185;28;20032;-68
2022/12/25 09:16:15;;;;;;;11.70;6.23;;;;;;;18.01;51.53;101312.91;5108668;28;20039;-68
2022/12/25 09:18:40;;;;;;;8.87;6.10;;;;;;;19.20;48.95;101312.19;5104401;28;20126;-68
2022/12/25 09:21:09;;;;;;;13.07;6.97;;;;;;;18.74;49.29;101312.13;5104645;28;20168;-68
2022/12/25 09:23:35;;;;;;;15.07;6.83;;;;;;;18.99;49.40;101313.88;5101367;28;20095;-68
2022/12/25 09:26:02;;;;;;;15.37;7.03;;;;;;;18.75;49.96;101300.59;5101123;28;20032;-68
2022/12/25 09:28:27;;;;;;;10.67;6.87;;;;;;;17.86;52.47;101301.00;5106830;28;20449;-68
2022/12/25 09:30:53;;;;;;;11.50;7.50;;;;;;;19.07;49.56;101311.81;5108809;28;20015;-68
2022/12/25 09:33:20;;;;;;;15.47;8.67;;;;;;;18.98;49.14;101298.91;5103147;28;20372;-68
2022/12/25 09:35:56;;;;;;;14.90;9.57;;;;;;;19.47;48.09;101299.66;5103948;28;20103;-68
2022/12/25 09:38:22;;;;;;;14.10;8.37;;;;;;;19.81;47.42;101285.06;5101939;28;20027;-68
2022/12/25 09:40:57;;;;;;;19.33;9.63;;;;;;;18.75;49.44;101284.72;5104771;28;20031;-68
2022/12/25 09:43:27;;;;;;;18.43;9.57;;;;;;;19.30;48.00;101275.59;5104742;28;20020;-68
2022/12/25 09:45:53;;;;;;;14.27;8.77;;;;;;;18.91;49.89;101290.31;5108336;28;20114;-68
2022/12/25 09:48:19;;;;;;;16.47;8.33;;;;;;;18.75;50.22;101290.00;5105545;28;20110;-67
2022/12/25 09:51:15;;;;;;;16.90;8.10;;;;;;;19.66;47.83;101264.44;5106026;28;20489;-67
2022/12/25 09:53:59;;;;;;;21.57;9.63;;;;;;;19.40;48.59;101266.34;5090360;28;20043;-67
2022/12/25 09:56:24;;;;;;;19.43;9.20;;;;;;;18.95;50.10;101264.59;5105520;28;20747;-67
2022/12/25 09:58:51;;;;;;;16.60;9.17;;;;;;;18.63;51.12;101264.84;5107595;28;20076;-67
2022/12/25 10:01:33;;;;;;;24.17;10.20;;;;;;;19.73;48.09;101252.66;5101502;28;20121;-67
2022/12/25 10:04:24;;;;;;;17.02;9.38;;;;;;;19.73;47.92;101257.94;5103811;28;20134;-67
2022/12/25 10:06:56;;;;;;;20.97;10.50;;;;;;;19.57;47.75;101267.47;5107222;28;20027;-67
2022/12/25 10:09:30;;;;;;;23.67;11.27;;;;;;;19.61;48.20;101247.84;5109528;28;20038;-67
2022/12/25 10:12:37;;;;;;;21.53;10.23;;;;;;;19.56;47.42;101239.22;5105826;28;20075;-67
2022/12/25 10:15:28;;;;;;;18.77;10.53;;;;;;;19.66;47.88;101240.59;5107143;28;20034;-67
2022/12/25 10:18:07;;;;;;;22.23;10.73;;;;;;;20.24;46.33;101242.53;5078210;28;20169;-67
2022/12/25 10:20:55;;;;;;;28.03;11.07;;;;;;;20.38;45.77;101236.63;5104227;28;20024;-67
2022/12/25 10:23:23;;;;;;;32.83;12.20;;;;;;;20.03;46.30;101223.13;5101399;28;20476;-68
2022/12/25 10:25:51;;;;;;;25.37;12.10;;;;;;;19.88;46.81;101224.66;5107049;28;20043;-67
2022/12/25 10:28:27;;;;;;;30.20;12.57;;;;;;;20.36;46.07;101224.34;5101643;28;20055;-67
2022/12/25 10:30:56;;;;;;;25.77;11.97;;;;;;;20.43;45.46;101225.78;5100562;28;20055;-67
2022/12/25 10:33:21;;;;;;;21.07;10.90;;;;;;;20.35;45.51;101215.53;5109894;28;20118;-68
2022/12/25 10:35:47;;;;;;;20.70;10.43;;;;;;;19.36;47.58;101213.53;5108192;28;20115;-66
2022/12/25 10:38:18;;;;;;;16.13;10.23;;;;;;;19.80;47.24;101205.56;5106636;28;20027;-67
2022/12/25 10:40:46;;;;;;;20.57;10.27;;;;;;;18.92;48.40;101209.09;5108343;28;20023;-67
2022/12/25 10:43:21;;;;;;;22.80;11.37;;;;;;;20.05;46.40;101210.66;5110205;28;20046;-67
2022/12/25 10:45:48;;;;;;;20.73;12.30;;;;;;;19.83;46.98;101211.56;5108043;28;20501;-66
2022/12/25 10:48:21;;;;;;;19.70;11.13;;;;;;;19.41;48.09;101208.91;5112501;28;20042;-67
2022/12/25 10:50:48;;;;;;;23.77;12.13;;;;;;;19.65;47.16;101201.72;5101699;28;20031;-65
2022/12/25 10:53:28;;;;;;;26.13;12.83;;;;;;;20.41;45.66;101206.41;5110079;28;20023;-66
2022/12/25 10:56:03;;;;;;;23.97;14.37;;;;;;;20.10;46.36;101198.03;5101872;28;20546;-66
2022/12/25 10:58:29;;;;;;;30.20;16.37;;;;;;;19.33;48.49;101186.22;5105007;28;20548;-66
2022/12/25 11:01:01;;;;;;;24.83;14.53;;;;;;;20.10;46.51;101182.13;5105875;28;20369;-66
2022/12/25 11:03:30;;;;;;;26.48;13.15;;;;;;;20.25;46.05;101163.78;5111913;28;20500;-66
2022/12/25 11:05:56;;;;;;;21.07;10.17;;;;;;;19.75;46.85;101160.63;5110755;28;20042;-66
2022/12/25 11:08:25;;;;;;;16.67;9.13;;;;;;;19.92;46.47;101167.00;5110954;28;20068;-66
2022/12/25 11:11:07;;;;;;;18.53;9.40;;;;;;;19.73;46.98;101159.84;5102438;28;20024;-65
2022/12/25 11:13:47;;;;;;;23.23;9.50;;;;;;;20.27;46.32;101156.63;5101767;28;20429;-65
2022/12/25 11:16:25;;;;;;;15.17;10.20;;;;;;;20.34;45.79;101152.75;5106335;27;20505;-65
2022/12/25 11:18:53;;;;;;;18.63;9.87;;;;;;;20.73;45.31;101143.00;5110838;28;20027;-66
2022/12/25 11:21:27;;;;;;;19.60;9.67;;;;;;;20.70;45.46;101146.66;5102487;28;20031;-66
2022/12/25 11:24:19;;;;;;;15.53;10.13;;;;;;;20.39;45.94;101153.41;5109334;28;20024;-65
2022/12/25 11:26:48;;;;;;;19.75;10.98;;;;;;;20.12;46.65;101159.03;5104341;27;20035;-66
2022/12/25 11:29:23;;;;;;;19.97;10.50;;;;;;;20.01;47.06;101156.00;5109382;28;20035;-65
2022/12/25 11:31:49;;;;;;;20.10;9.87;;;;;;;20.10;46.65;101149.41;5105286;28;20433;-66
2022/12/25 11:34:39;;;;;;;16.97;10.13;;;;;;;19.85;47.58;101144.34;5106763;28;20587;-66
2022/12/25 11:37:13;;;;;;;17.33;9.13;;;;;;;20.14;47.25;101146.56;5106969;28;20478;-66
2022/12/25 11:39:40;;;;;;;16.73;10.37;;;;;;;20.06;47.23;101143.38;5103432;28;20020;-65
2022/12/25 11:42:17;;;;;;;15.83;9.70;;;;;;;19.87;47.54;101147.81;5109754;28;20020;-65
2022/12/25 11:45:06;;;;;;;18.50;10.60;;;;;;;20.33;46.80;101140.41;5111168;28;20049;-66
2022/12/25 11:47:43;;;;;;;15.80;9.63;;;;;;;20.19;46.79;101142.84;5107465;28;20508;-66
2022/12/25 11:50:12;;;;;;;19.40;9.80;;;;;;;19.85;48.11;101141.69;5106619;28;20102;-67
2022/12/25 11:52:41;;;;;;;15.60;9.53;;;;;;;20.11;47.23;101125.47;5103902;28;20028;-66
2022/12/25 11:55:15;;;;;;;14.37;10.20;;;;;;;20.32;46.73;101123.63;5102649;28;20065;-66
2022/12/25 11:57:43;;;;;;;17.67;9.80;;;;;;;19.86;47.67;101103.63;5117337;27;20438;-66
2022/12/25 12:00:14;;;;;;;14.43;8.70;;;;;;;20.78;45.78;101093.19;5108106;28;20024;-66
2022/12/25 12:03:02;;;;;;;16.60;9.10;;;;;;;20.43;46.65;101098.34;5106104;28;20522;-66
2022/12/25 12:05:41;;;;;;;19.33;9.57;;;;;;;20.07;46.80;101096.47;5100044;28;20039;-67
2022/12/25 12:08:08;;;;;;;16.77;9.50;;;;;;;20.13;47.24;101078.50;5100982;28;20391;-67
2022/12/25 12:10:50;;;;;;;15.03;8.87;;;;;;;19.49;48.56;101075.13;5108977;28;20035;-66
2022/12/25 12:13:43;;;;;;;15.63;9.40;;;;;;;20.13;47.73;101075.84;5106263;28;20028;-66
2022/12/25 12:16:09;;;;;;;16.63;10.10;;;;;;;20.06;47.54;101077.06;5107870;28;20042;-66
2022/12/25 12:18:35;;;;;;;16.90;9.57;;;;;;;19.60;48.72;101082.59;5111117;28;20471;-66
2022/12/25 12:21:29;;;;;;;18.47;9.80;;;;;;;20.18;46.94;101078.28;5110389;28;20051;-66
2022/12/25 12:24:14;;;;;;;17.08;9.93;;;;;;;19.72;48.24;101080.34;5104623;28;20039;-66
2022/12/25 12:26:42;;;;;;;17.67;9.13;;;;;;;19.96;46.98;101078.41;5110547;28;20077;-67
2022/12/25 12:29:24;;;;;;;20.37;9.83;;;;;;;19.82;47.07;101087.88;5109623;28;20080;-66
2022/12/25 12:31:50;;;;;;;15.20;9.67;;;;;;;19.83;47.82;101094.00;5106688;28;20023;-66
2022/12/25 12:34:26;;;;;;;16.07;10.27;;;;;;;20.36;45.86;101089.84;5096482;28;20061;-67
2022/12/25 12:37:00;;;;;;;16.87;10.57;;;;;;;19.28;49.31;101081.34;5110513;28;20023;-66
2022/12/25 12:39:39;;;;;;;19.40;10.47;;;;;;;19.23;48.86;101078.03;5112242;28;20437;-66
2022/12/25 12:42:34;;;;;;;18.93;10.63;;;;;;;19.85;47.79;101076.22;5108603;28;20039;-66
2022/12/25 12:45:09;;;;;;;21.03;10.47;;;;;;;20.47;45.90;101068.94;5102365;27;20028;-66
2022/12/25 12:47:41;;;;;;;18.47;10.13;;;;;;;19.95;47.27;101066.09;5101427;28;20023;-66
2022/12/25 12:50:27;;;;;;;20.00;10.23;;;;;;;20.50;45.69;101063.50;5110010;28;20030;-66
2022/12/25 12:52:52;;;;;;;17.37;11.10;;;;;;;20.53;45.91;101051.00;5109521;28;20023;-66
2022/12/25 12:55:32;;;;;;;15.77;9.47;;;;;;;20.65;45.71;101039.78;5107191;28;20368;-66
2022/12/25 12:58:03;;;;;;;15.67;9.40;;;;;;;19.76;46.89;101035.06;5103940;28;20035;-66
2022/12/25 13:00:41;;;;;;;14.53;9.30;;;;;;;19.76;48.03;101029.75;5107952;28;20032;-65
2022/12/25 13:03:07;;;;;;;15.37;9.40;;;;;;;19.93;47.42;101036.09;5110215;27;20028;-66
2022/12/25 13:05:47;;;;;;;15.33;8.40;;;;;;;20.31;46.53;101025.50;5111034;27;20390;-66